Time;durP1;ratioP1;P1;durP2;ratioP2;P2;SDS_P1;SDS_P2;PMS_P1;PMS_P2;Temp;Humidity;BMP_temperature;BMP_pressure;BME280_temperature;BME280_humidity;BME280_pressure;Samples;Min_cycle;Max_cycle;Signal;HPM_P1;HPM_P2
2023/08/03 00:01:49;;;;;;;;;0.00;0.00;;;;;;;;5038455;28;8825;-85
2023/08/03 00:04:16;;;;;;;;;0.00;0.00;;;;;;;;5059360;28;8873;-82
2023/08/03 00:06:45;;;;;;;;;0.00;0.00;;;;;;;;5050465;28;8869;-82
2023/08/03 00:09:12;;;;;;;;;0.00;0.00;;;;;;;;5050047;28;8851;-80
2023/08/03 00:11:39;;;;;;;;;0.00;0.00;;;;;;;;5049815;28;8851;-82
2023/08/03 00:14:07;;;;;;;;;0.75;0.00;;;;;;;;5048364;28;8840;-87
2023/08/03 00:16:34;;;;;;;;;0.50;0.00;;;;;;;;5051718;28;8886;-86
2023/08/03 00:19:01;;;;;;;;;0.25;0.00;;;;;;;;5055170;28;8885;-87
2023/08/03 00:21:28;;;;;;;;;1.75;0.75;;;;;;;;5034289;28;8878;-86
2023/08/03 00:23:57;;;;;;;;;0.75;0.75;;;;;;;;5042488;28;8843;-85
2023/08/03 00:26:24;;;;;;;;;1.50;0.00;;;;;;;;5049884;28;8877;-89
2023/08/03 00:28:51;;;;;;;;;0.00;0.00;;;;;;;;5049489;28;8844;-89
2023/08/03 00:31:18;;;;;;;;;2.00;0.25;;;;;;;;5036674;28;8918;-89
2023/08/03 00:33:46;;;;;;;;;1.00;0.25;;;;;;;;5049200;28;8977;-86
2023/08/03 00:36:13;;;;;;;;;1.00;1.00;;;;;;;;5044368;28;9004;-84
2023/08/03 00:38:40;;;;;;;;;0.00;0.00;;;;;;;;5043281;28;8905;-82
2023/08/03 00:41:09;;;;;;;;;2.00;0.00;;;;;;;;5042800;28;8862;-88
2023/08/03 00:43:36;;;;;;;;;0.25;0.25;;;;;;;;5042825;28;8851;-89
2023/08/03 00:46:03;;;;;;;;;2.50;1.00;;;;;;;;5049224;28;8869;-85
2023/08/03 00:48:30;;;;;;;;;1.00;1.00;;;;;;;;5049466;28;8885;-90
2023/08/03 00:50:58;;;;;;;;;3.00;1.00;;;;;;;;5038824;28;8865;-89
2023/08/03 00:53:25;;;;;;;;;1.75;0.75;;;;;;;;5052257;28;8978;-87
2023/08/03 00:55:52;;;;;;;;;2.00;2.00;;;;;;;;5045467;28;8870;-87
2023/08/03 00:58:21;;;;;;;;;1.75;0.50;;;;;;;;5050705;28;8873;-90
2023/08/03 01:00:48;;;;;;;;;2.00;2.00;;;;;;;;5038186;28;8787;-88
2023/08/03 01:03:15;;;;;;;;;1.00;1.00;;;;;;;;5039001;28;8911;-84
2023/08/03 01:05:43;;;;;;;;;2.25;1.75;;;;;;;;5050873;28;8996;-90
2023/08/03 01:08:10;;;;;;;;;4.25;3.00;;;;;;;;5045633;28;8865;-89
2023/08/03 01:10:37;;;;;;;;;2.50;2.50;;;;;;;;5049687;28;8866;-89
2023/08/03 01:13:05;;;;;;;;;0.75;0.75;;;;;;;;5049628;28;8873;-86
2023/08/03 01:15:33;;;;;;;;;2.25;1.50;;;;;;;;5049451;28;8890;-86
2023/08/03 01:18:00;;;;;;;;;1.50;1.50;;;;;;;;5058102;28;8854;-87
2023/08/03 01:20:29;;;;;;;;;3.00;3.00;;;;;;;;5049528;28;8875;-87
2023/08/03 01:22:57;;;;;;;;;2.25;2.25;;;;;;;;5049148;28;8859;-87
2023/08/03 01:25:25;;;;;;;;;2.00;2.00;;;;;;;;5048468;28;8948;-87
2023/08/03 01:27:52;;;;;;;;;2.25;2.25;;;;;;;;5049246;28;8895;-84
2023/08/03 01:30:19;;;;;;;;;2.75;2.75;;;;;;;;5050110;28;8859;-87
2023/08/03 01:32:46;;;;;;;;;3.25;1.75;;;;;;;;5052854;28;8877;-81
2023/08/03 01:35:14;;;;;;;;;2.50;1.00;;;;;;;;5042099;28;9643;-81
2023/08/03 01:37:41;;;;;;;;;3.25;1.75;;;;;;;;5049996;28;8867;-87
2023/08/03 01:40:11;;;;;;;;;3.75;1.00;;;;;;;;5049044;28;8867;-83
2023/08/03 01:42:39;;;;;;;;;4.25;2.50;;;;;;;;5048330;28;8873;-83
2023/08/03 01:45:09;;;;;;;;;0.00;0.00;;;;;;;;5048736;28;9308;-87
2023/08/03 01:47:36;;;;;;;;;2.00;2.00;;;;;;;;5048282;28;8894;-88
2023/08/03 01:50:04;;;;;;;;;1.25;1.00;;;;;;;;5048814;28;8853;-83
2023/08/03 01:52:31;;;;;;;;;5.00;2.00;;;;;;;;5048381;28;8858;-84
2023/08/03 01:54:58;;;;;;;;;1.00;1.00;;;;;;;;5035371;28;8846;-86
2023/08/03 01:57:27;;;;;;;;;2.50;1.00;;;;;;;;5036325;28;9741;-88
2023/08/03 01:59:54;;;;;;;;;1.00;1.00;;;;;;;;5035872;28;8889;-88
2023/08/03 02:02:21;;;;;;;;;1.00;1.00;;;;;;;;5047977;28;8821;-88
2023/08/03 02:04:48;;;;;;;;;2.00;2.00;;;;;;;;5048474;28;8823;-84
2023/08/03 02:07:18;;;;;;;;;1.75;1.00;;;;;;;;5044752;28;8912;-87
2023/08/03 02:09:46;;;;;;;;;2.25;1.00;;;;;;;;5039508;28;8853;-89
2023/08/03 02:12:13;;;;;;;;;1.75;1.25;;;;;;;;5050439;28;8966;-89
2023/08/03 02:14:41;;;;;;;;;1.00;1.00;;;;;;;;5047309;28;8891;-88
2023/08/03 02:17:09;;;;;;;;;2.50;1.50;;;;;;;;5048477;28;8847;-89
2023/08/03 02:19:37;;;;;;;;;2.00;1.00;;;;;;;;5048632;28;8997;-89
2023/08/03 02:22:04;;;;;;;;;1.00;0.50;;;;;;;;5039399;28;8908;-88
2023/08/03 02:24:31;;;;;;;;;1.00;0.75;;;;;;;;5042644;28;8850;-88
2023/08/03 02:26:58;;;;;;;;;0.00;0.00;;;;;;;;5038615;28;8981;-89
2023/08/03 02:29:25;;;;;;;;;7.00;1.50;;;;;;;;5048167;28;8863;-88
2023/08/03 02:31:54;;;;;;;;;2.00;0.75;;;;;;;;5037439;28;8803;-87
2023/08/03 02:34:21;;;;;;;;;2.75;1.75;;;;;;;;5035040;28;8878;-84
2023/08/03 02:36:48;;;;;;;;;0.75;0.75;;;;;;;;5030774;28;8854;-84
2023/08/03 02:39:16;;;;;;;;;4.00;1.00;;;;;;;;5033885;28;8880;-86
2023/08/03 02:41:43;;;;;;;;;3.50;2.00;;;;;;;;5046908;28;9002;-86
2023/08/03 02:44:10;;;;;;;;;0.75;0.75;;;;;;;;5038630;28;8862;-88
2023/08/03 02:46:37;;;;;;;;;0.75;0.75;;;;;;;;5056710;28;9346;-88
2023/08/03 02:49:06;;;;;;;;;1.75;1.75;;;;;;;;5052843;28;8878;-88
2023/08/03 02:51:33;;;;;;;;;2.00;0.75;;;;;;;;5054527;28;8942;-88
2023/08/03 02:54:00;;;;;;;;;2.75;2.00;;;;;;;;5053248;28;8881;-87
2023/08/03 02:56:27;;;;;;;;;1.00;1.00;;;;;;;;5053139;28;8883;-89
2023/08/03 02:58:55;;;;;;;;;1.00;1.00;;;;;;;;5053047;28;8895;-86
2023/08/03 03:01:22;;;;;;;;;2.00;0.75;;;;;;;;5046238;28;8827;-87
2023/08/03 03:03:49;;;;;;;;;3.25;1.50;;;;;;;;5050934;28;8861;-87
2023/08/03 03:06:18;;;;;;;;;1.00;1.00;;;;;;;;5052057;28;8888;-88
2023/08/03 03:08:45;;;;;;;;;1.25;0.75;;;;;;;;5039127;28;8886;-83
2023/08/03 03:11:13;;;;;;;;;1.75;1.75;;;;;;;;5051263;28;8986;-87
2023/08/03 03:13:40;;;;;;;;;0.75;0.75;;;;;;;;5051106;28;8847;-87
2023/08/03 03:16:07;;;;;;;;;4.00;2.25;;;;;;;;5049816;28;8985;-85
2023/08/03 03:18:34;;;;;;;;;1.25;0.75;;;;;;;;5051532;28;8867;-86
2023/08/03 03:21:01;;;;;;;;;1.00;1.00;;;;;;;;5052686;28;8875;-85
2023/08/03 03:23:30;;;;;;;;;1.00;1.00;;;;;;;;5055834;28;8977;-86
2023/08/03 03:25:57;;;;;;;;;0.50;0.50;;;;;;;;5051297;28;8847;-88
2023/08/03 03:28:24;;;;;;;;;1.25;0.75;;;;;;;;5051071;28;8855;-84
2023/08/03 03:30:51;;;;;;;;;1.75;1.00;;;;;;;;5050002;28;8898;-87
2023/08/03 03:33:19;;;;;;;;;1.00;1.00;;;;;;;;5043355;28;8865;-87
2023/08/03 03:35:46;;;;;;;;;2.00;0.75;;;;;;;;5032773;28;8873;-84
2023/08/03 03:38:13;;;;;;;;;3.00;1.00;;;;;;;;5050647;28;8958;-85
2023/08/03 03:40:42;;;;;;;;;1.75;1.25;;;;;;;;5050187;28;9659;-82
2023/08/03 03:43:09;;;;;;;;;1.00;1.00;;;;;;;;5041119;28;8929;-82
2023/08/03 03:45:36;;;;;;;;;1.00;1.00;;;;;;;;5043673;28;8980;-88
2023/08/03 03:48:03;;;;;;;;;0.00;0.00;;;;;;;;5039974;28;8879;-86
2023/08/03 03:50:31;;;;;;;;;0.00;0.00;;;;;;;;5049729;28;8892;-87
2023/08/03 03:52:58;;;;;;;;;0.00;0.00;;;;;;;;5050264;28;8924;-81
2023/08/03 03:55:26;;;;;;;;;1.00;1.00;;;;;;;;5057808;28;8878;-89
2023/08/03 03:57:57;;;;;;;;;1.00;1.00;;;;;;;;5045719;28;8969;-87
2023/08/03 04:00:25;;;;;;;;;2.00;1.00;;;;;;;;5050924;28;8935;-87
2023/08/03 04:02:52;;;;;;;;;0.00;0.00;;;;;;;;5044175;28;8859;-88
2023/08/03 04:05:19;;;;;;;;;1.00;1.00;;;;;;;;5036249;28;8855;-87
2023/08/03 04:07:47;;;;;;;;;0.75;0.75;;;;;;;;5050525;28;8898;-85
2023/08/03 04:10:14;;;;;;;;;1.00;1.00;;;;;;;;5050595;28;8851;-89
2023/08/03 04:12:41;;;;;;;;;0.75;0.75;;;;;;;;5049800;28;8873;-89
2023/08/03 04:15:10;;;;;;;;;1.50;0.75;;;;;;;;5042115;28;8888;-89
2023/08/03 04:17:38;;;;;;;;;0.25;0.25;;;;;;;;5044460;28;8885;-89
2023/08/03 04:20:06;;;;;;;;;1.50;0.75;;;;;;;;5048793;28;8839;-89
2023/08/03 04:22:34;;;;;;;;;0.25;0.25;;;;;;;;5037082;28;8988;-88
2023/08/03 04:25:01;;;;;;;;;0.00;0.00;;;;;;;;5060534;28;8956;-88
2023/08/03 04:27:30;;;;;;;;;1.00;1.00;;;;;;;;5036117;28;8873;-89
2023/08/03 04:29:57;;;;;;;;;0.00;0.00;;;;;;;;5050225;28;8994;-87
2023/08/03 04:32:26;;;;;;;;;0.00;0.00;;;;;;;;5049669;28;8820;-88
2023/08/03 04:34:53;;;;;;;;;1.00;1.00;;;;;;;;5052883;28;8898;-88
2023/08/03 04:37:20;;;;;;;;;0.00;0.00;;;;;;;;5064703;28;8866;-87
2023/08/03 04:39:49;;;;;;;;;0.00;0.00;;;;;;;;5052184;28;8888;-87
2023/08/03 04:42:16;;;;;;;;;0.00;0.00;;;;;;;;5050861;28;8898;-88
2023/08/03 04:44:43;;;;;;;;;2.00;0.00;;;;;;;;5050488;28;8851;-85
2023/08/03 04:47:10;;;;;;;;;0.00;0.00;;;;;;;;5044552;28;9026;-86
2023/08/03 04:49:39;;;;;;;;;1.50;1.50;;;;;;;;5049157;28;8851;-87
2023/08/03 04:52:07;;;;;;;;;2.75;0.50;;;;;;;;5042167;28;9001;-84
2023/08/03 04:54:34;;;;;;;;;0.00;0.00;;;;;;;;5042295;28;8877;-82
2023/08/03 04:57:02;;;;;;;;;0.00;0.00;;;;;;;;5048402;28;8881;-87
2023/08/03 04:59:29;;;;;;;;;0.00;0.00;;;;;;;;5048064;28;9652;-85
2023/08/03 05:01:56;;;;;;;;;0.00;0.00;;;;;;;;5048389;28;8813;-84
2023/08/03 05:04:23;;;;;;;;;0.50;0.50;;;;;;;;5049196;28;8847;-85
2023/08/03 05:06:52;;;;;;;;;0.25;0.00;;;;;;;;5045869;28;8855;-83
2023/08/03 05:09:19;;;;;;;;;0.00;0.00;;;;;;;;5047801;28;8871;-87
2023/08/03 05:11:46;;;;;;;;;0.00;0.00;;;;;;;;5052623;28;9562;-85
2023/08/03 05:14:14;;;;;;;;;2.50;0.00;;;;;;;;5051532;28;8958;-87
2023/08/03 05:16:41;;;;;;;;;0.25;0.25;;;;;;;;5048502;28;8855;-83
2023/08/03 05:19:08;;;;;;;;;0.00;0.00;;;;;;;;5038593;28;8997;-83
2023/08/03 05:21:35;;;;;;;;;0.00;0.00;;;;;;;;5048171;28;8869;-83
2023/08/03 05:24:04;;;;;;;;;0.00;0.00;;;;;;;;5044865;28;8994;-86
2023/08/03 05:26:33;;;;;;;;;0.00;0.00;;;;;;;;5038477;28;8867;-85
2023/08/03 05:29:01;;;;;;;;;0.00;0.00;;;;;;;;5044954;28;8851;-84
2023/08/03 05:31:28;;;;;;;;;0.00;0.00;;;;;;;;5048110;28;8842;-82
2023/08/03 05:33:56;;;;;;;;;0.25;0.25;;;;;;;;5047936;28;8985;-87
2023/08/03 05:36:24;;;;;;;;;1.00;1.00;;;;;;;;5056615;28;8929;-86
2023/08/03 05:38:53;;;;;;;;;0.00;0.00;;;;;;;;5049699;28;8843;-81
2023/08/03 05:41:27;;;;;;;;;1.00;0.00;;;;;;;;5036897;28;8858;-83
2023/08/03 05:43:54;;;;;;;;;0.00;0.00;;;;;;;;5035825;28;8871;-87
2023/08/03 05:46:21;;;;;;;;;1.00;1.00;;;;;;;;5057172;28;8886;-85
2023/08/03 05:48:52;;;;;;;;;0.00;0.00;;;;;;;;5055203;28;8891;-89
2023/08/03 05:51:25;;;;;;;;;0.00;0.00;;;;;;;;5036122;28;9652;-87
2023/08/03 05:53:52;;;;;;;;;0.50;0.50;;;;;;;;5047804;28;8834;-88
2023/08/03 05:56:21;;;;;;;;;2.50;1.00;;;;;;;;5041706;28;8851;-88
2023/08/03 05:58:50;;;;;;;;;1.75;0.00;;;;;;;;5048707;28;8871;-91
2023/08/03 06:01:20;;;;;;;;;0.75;0.75;;;;;;;;5048090;28;8775;-90
2023/08/03 06:03:47;;;;;;;;;0.00;0.00;;;;;;;;5047572;28;8867;-91
2023/08/03 06:06:18;;;;;;;;;0.50;0.50;;;;;;;;5046825;28;8936;-87
2023/08/03 06:08:51;;;;;;;;;0.75;0.75;;;;;;;;5037370;28;8867;-90
2023/08/03 06:11:20;;;;;;;;;1.75;1.75;;;;;;;;5044918;28;8915;-78
2023/08/03 06:13:49;;;;;;;;;0.25;0.25;;;;;;;;5042936;28;8911;-81
2023/08/03 06:16:17;;;;;;;;;0.75;0.75;;;;;;;;5045025;28;8834;-83
2023/08/03 06:18:49;;;;;;;;;0.00;0.00;;;;;;;;5037251;28;8973;-82
2023/08/03 06:21:17;;;;;;;;;1.00;1.00;;;;;;;;5050912;28;8882;-82
2023/08/03 06:23:46;;;;;;;;;0.75;0.75;;;;;;;;5048732;28;8853;-77
2023/08/03 06:26:15;;;;;;;;;1.00;1.00;;;;;;;;5044732;28;8884;-80
2023/08/03 06:28:43;;;;;;;;;1.75;0.75;;;;;;;;5051208;28;8878;-81
2023/08/03 06:31:15;;;;;;;;;0.50;0.25;;;;;;;;5049570;28;8922;-79
2023/08/03 06:33:44;;;;;;;;;1.75;1.75;;;;;;;;5050831;28;8909;-79
2023/08/03 06:36:13;;;;;;;;;1.50;0.25;;;;;;;;5050644;28;8881;-79
2023/08/03 06:38:42;;;;;;;;;0.75;0.75;;;;;;;;5040228;28;8869;-78
2023/08/03 06:41:10;;;;;;;;;1.50;0.75;;;;;;;;5034454;28;8855;-79
2023/08/03 06:43:37;;;;;;;;;1.00;1.00;;;;;;;;5038030;28;8873;-75
2023/08/03 06:46:05;;;;;;;;;0.25;0.25;;;;;;;;5050054;28;8843;-77
2023/08/03 06:48:34;;;;;;;;;1.00;1.00;;;;;;;;5050156;28;8847;-76
2023/08/03 06:51:02;;;;;;;;;0.50;0.50;;;;;;;;5050060;28;9734;-76
2023/08/03 06:53:29;;;;;;;;;0.75;0.75;;;;;;;;5049664;28;8870;-78
2023/08/03 06:55:59;;;;;;;;;0.75;0.75;;;;;;;;5049701;28;8982;-76
2023/08/03 06:58:27;;;;;;;;;1.00;1.00;;;;;;;;5037877;28;8877;-76
2023/08/03 07:00:54;;;;;;;;;1.00;1.00;;;;;;;;5050447;28;9677;-76
2023/08/03 07:03:22;;;;;;;;;0.75;0.75;;;;;;;;5037201;28;8865;-75
2023/08/03 07:05:50;;;;;;;;;0.75;0.75;;;;;;;;5050386;28;9068;-77
2023/08/03 07:08:17;;;;;;;;;1.50;0.50;;;;;;;;5049590;28;8867;-75
2023/08/03 07:10:45;;;;;;;;;1.50;1.50;;;;;;;;5050065;28;8877;-78
2023/08/03 07:13:13;;;;;;;;;0.25;0.25;;;;;;;;5049580;28;8878;-81
2023/08/03 07:15:40;;;;;;;;;1.50;0.50;;;;;;;;5049449;28;8890;-77
2023/08/03 07:18:07;;;;;;;;;0.75;0.75;;;;;;;;5049369;28;8862;-77
2023/08/03 07:20:35;;;;;;;;;1.00;1.00;;;;;;;;5049863;28;8851;-74
2023/08/03 07:23:07;;;;;;;;;0.25;0.25;;;;;;;;5049211;28;8850;-76
2023/08/03 07:25:34;;;;;;;;;0.75;0.75;;;;;;;;5049595;28;8859;-83
2023/08/03 07:28:01;;;;;;;;;2.25;1.00;;;;;;;;5049514;28;8919;-81
2023/08/03 07:30:29;;;;;;;;;1.00;1.00;;;;;;;;5049009;28;8806;-82
2023/08/03 07:32:59;;;;;;;;;0.25;0.25;;;;;;;;5048925;28;8847;-82
2023/08/03 07:35:26;;;;;;;;;2.00;2.00;;;;;;;;5049306;28;8850;-82
2023/08/03 07:37:53;;;;;;;;;2.75;1.00;;;;;;;;5048579;28;8870;-78
2023/08/03 07:40:22;;;;;;;;;1.75;1.75;;;;;;;;5049700;28;8871;-82
2023/08/03 07:42:49;;;;;;;;;0.00;0.00;;;;;;;;5043528;28;8844;-83
2023/08/03 07:45:17;;;;;;;;;2.00;2.00;;;;;;;;5043943;28;8851;-83
2023/08/03 07:47:44;;;;;;;;;1.00;1.00;;;;;;;;5049465;28;8855;-82
2023/08/03 07:50:11;;;;;;;;;1.75;1.75;;;;;;;;5035610;28;8873;-77
2023/08/03 07:52:39;;;;;;;;;2.50;1.00;;;;;;;;5061056;28;8928;-82
2023/08/03 07:55:07;;;;;;;;;1.00;1.00;;;;;;;;5047763;28;8852;-83
2023/08/03 07:57:36;;;;;;;;;2.25;1.25;;;;;;;;5038378;28;8843;-80
2023/08/03 08:00:04;;;;;;;;;1.25;1.25;;;;;;;;5047740;28;8887;-77
2023/08/03 08:02:32;;;;;;;;;1.00;1.00;;;;;;;;5048488;28;8855;-77
2023/08/03 08:04:59;;;;;;;;;1.50;1.00;;;;;;;;5048036;28;8883;-77
2023/08/03 08:07:26;;;;;;;;;2.75;2.75;;;;;;;;5048639;28;8977;-77
2023/08/03 08:09:54;;;;;;;;;1.80;1.00;;;;;;;;5040316;28;8849;-73
2023/08/03 08:12:21;;;;;;;;;0.40;0.40;;;;;;;;5042440;28;8918;-75
2023/08/03 08:14:50;;;;;;;;;1.60;1.60;;;;;;;;5043181;28;8930;-73
2023/08/03 08:17:17;;;;;;;;;1.00;1.00;;;;;;;;5047034;28;8905;-73
2023/08/03 08:19:45;;;;;;;;;1.00;1.00;;;;;;;;5047875;28;8977;-75
2023/08/03 08:22:12;;;;;;;;;1.80;1.00;;;;;;;;5047274;28;8879;-82
2023/08/03 08:24:39;;;;;;;;;1.60;1.60;;;;;;;;5042634;28;8950;-82
2023/08/03 08:27:07;;;;;;;;;1.60;1.00;;;;;;;;5047423;28;8878;-80
2023/08/03 08:29:34;;;;;;;;;2.80;1.80;;;;;;;;5047964;28;9619;-78
2023/08/03 08:32:03;;;;;;;;;1.00;1.00;;;;;;;;5046548;28;8819;-75
2023/08/03 08:34:30;;;;;;;;;1.80;0.80;;;;;;;;5043309;28;8852;-78
2023/08/03 08:36:57;;;;;;;;;1.40;1.40;;;;;;;;5039239;28;8861;-81
2023/08/03 08:39:24;;;;;;;;;2.00;1.00;;;;;;;;5047450;28;8883;-75
2023/08/03 08:41:52;;;;;;;;;1.00;1.00;;;;;;;;5048096;28;8994;-78
2023/08/03 08:44:19;;;;;;;;;1.00;1.00;;;;;;;;5047682;28;8855;-78
2023/08/03 08:46:46;;;;;;;;;0.80;0.80;;;;;;;;5046981;28;8893;-75
2023/08/03 08:49:15;;;;;;;;;1.00;1.00;;;;;;;;5047099;28;8859;-75
2023/08/03 08:51:42;;;;;;;;;1.60;1.60;;;;;;;;5047791;28;8858;-75
2023/08/03 08:54:10;;;;;;;;;1.60;1.60;;;;;;;;5035607;28;8848;-81
2023/08/03 08:56:37;;;;;;;;;0.00;0.00;;;;;;;;5047029;28;8874;-77
2023/08/03 08:59:04;;;;;;;;;4.00;1.80;;;;;;;;5046945;28;8851;-80
2023/08/03 09:01:49;;;;;;;;;1.00;1.00;;;;;;;;5046140;28;8797;-77
2023/08/03 09:04:29;;;;;;;;;3.00;1.00;;;;;;;;5047432;28;8871;-75
2023/08/03 09:06:56;;;;;;;;;0.80;0.80;;;;;;;;5046912;28;8843;-73
2023/08/03 09:09:34;;;;;;;;;2.20;2.00;;;;;;;;5047587;28;8851;-75
2023/08/03 09:12:03;;;;;;;;;1.40;1.40;;;;;;;;5036689;28;8862;-74
2023/08/03 09:14:31;;;;;;;;;1.00;1.00;;;;;;;;5045030;28;8831;-78
2023/08/03 09:17:16;;;;;;;;;4.20;1.00;;;;;;;;5047798;28;8928;-72
2023/08/03 09:19:45;;;;;;;;;3.00;1.60;;;;;;;;5047540;28;8982;-75
2023/08/03 09:22:12;;;;;;;;;1.00;1.00;;;;;;;;5047340;28;8887;-81
2023/08/03 09:24:39;;;;;;;;;2.00;2.00;;;;;;;;5047760;28;8861;-81
2023/08/03 09:27:07;;;;;;;;;3.20;1.80;;;;;;;;5048181;28;9765;-81
2023/08/03 09:29:34;;;;;;;;;1.40;1.40;;;;;;;;5048243;28;8874;-78
2023/08/03 09:32:03;;;;;;;;;2.40;2.00;;;;;;;;5048300;28;8823;-80
2023/08/03 09:34:38;;;;;;;;;1.40;0.80;;;;;;;;5047138;28;8855;-77
2023/08/03 09:37:07;;;;;;;;;2.60;1.20;;;;;;;;5047631;28;8989;-80
2023/08/03 09:39:36;;;;;;;;;1.00;1.00;;;;;;;;5041325;28;8878;-78
2023/08/03 09:42:05;;;;;;;;;3.80;3.00;;;;;;;;5035877;28;8843;-78
2023/08/03 09:44:34;;;;;;;;;1.40;1.40;;;;;;;;5035509;28;8859;-80
2023/08/03 09:47:02;;;;;;;;;2.80;2.80;;;;;;;;5047020;28;8874;-75
2023/08/03 09:49:29;;;;;;;;;3.00;3.00;;;;;;;;5036082;28;8865;-80
2023/08/03 09:51:58;;;;;;;;;3.00;3.00;;;;;;;;5047191;28;8866;-79
2023/08/03 09:54:34;;;;;;;;;5.00;5.00;;;;;;;;5040600;28;9675;-77
2023/08/03 09:57:04;;;;;;;;;6.00;4.00;;;;;;;;5046986;28;8866;-80
2023/08/03 09:59:34;;;;;;;;;6.00;4.00;;;;;;;;5051498;28;8869;-79
2023/08/03 10:02:03;;;;;;;;;6.00;6.00;;;;;;;;5050333;28;8796;-73
2023/08/03 10:04:32;;;;;;;;;5.50;5.50;;;;;;;;5051344;28;8851;-77
2023/08/03 10:07:03;;;;;;;;;8.00;6.00;;;;;;;;5050801;28;8853;-75
2023/08/03 10:09:39;;;;;;;;;5.75;3.75;;;;;;;;5050708;28;8871;-72
2023/08/03 10:12:09;;;;;;;;;4.75;4.75;;;;;;;;5050982;28;8864;-73
2023/08/03 10:14:42;;;;;;;;;3.75;3.75;;;;;;;;5050287;28;8888;-80
2023/08/03 10:17:11;;;;;;;;;3.50;3.50;;;;;;;;5059152;28;8854;-75
2023/08/03 10:19:39;;;;;;;;;3.00;3.00;;;;;;;;5050164;28;8990;-75
2023/08/03 10:22:08;;;;;;;;;3.00;3.00;;;;;;;;5050560;28;8881;-76
2023/08/03 10:24:36;;;;;;;;;3.00;3.00;;;;;;;;5050623;28;8878;-80
2023/08/03 10:27:19;;;;;;;;;2.80;2.80;;;;;;;;5050799;28;8865;-78
2023/08/03 10:29:56;;;;;;;;;2.80;2.80;;;;;;;;5049502;28;8867;-80
2023/08/03 10:32:27;;;;;;;;;2.60;2.60;;;;;;;;5049413;28;9602;-78
2023/08/03 10:34:58;;;;;;;;;2.00;2.00;;;;;;;;5051112;28;8854;-81
2023/08/03 10:37:26;;;;;;;;;4.00;2.60;;;;;;;;5051107;28;8977;-82
2023/08/03 10:39:55;;;;;;;;;1.00;1.00;;;;;;;;5051005;28;8885;-82
2023/08/03 10:42:27;;;;;;;;;2.00;2.00;;;;;;;;5047155;28;8858;-82
2023/08/03 10:44:55;;;;;;;;;2.00;2.00;;;;;;;;5043142;28;8851;-79
2023/08/03 10:47:27;;;;;;;;;2.00;0.80;;;;;;;;5050285;28;9005;-82
2023/08/03 10:49:56;;;;;;;;;4.00;2.00;;;;;;;;5051003;28;8863;-81
2023/08/03 10:52:26;;;;;;;;;5.25;3.75;;;;;;;;5050961;28;8932;-82
2023/08/03 10:54:56;;;;;;;;;6.00;4.25;;;;;;;;5038623;28;9613;-82
2023/08/03 10:57:25;;;;;;;;;0.00;0.00;;;;;;;;5039288;28;8894;-81
2023/08/03 10:59:53;;;;;;;;;0.00;0.00;;;;;;;;5061915;28;8848;-81
2023/08/03 11:02:22;;;;;;;;;0.00;0.00;;;;;;;;5060510;28;8803;-82
2023/08/03 11:04:51;;;;;;;;;0.00;0.00;;;;;;;;5039060;28;8870;-82
2023/08/03 11:07:22;;;;;;;;;0.00;0.00;;;;;;;;5050278;28;8867;-79
2023/08/03 11:09:51;;;;;;;;;0.20;0.20;;;;;;;;5052227;28;8831;-76
2023/08/03 11:12:22;;;;;;;;;0.00;0.00;;;;;;;;5052188;28;8876;-82
2023/08/03 11:14:52;;;;;;;;;0.00;0.00;;;;;;;;5049037;28;8997;-78
2023/08/03 11:17:22;;;;;;;;;1.00;1.00;;;;;;;;5057224;28;8875;-80
2023/08/03 11:19:49;;;;;;;;;1.80;1.00;;;;;;;;5050302;28;8889;-79
2023/08/03 11:22:16;;;;;;;;;0.60;0.60;;;;;;;;5050039;28;8885;-82
2023/08/03 11:24:44;;;;;;;;;0.40;0.40;;;;;;;;5039249;28;8857;-74
2023/08/03 11:27:12;;;;;;;;;0.00;0.00;;;;;;;;5046843;28;8982;-76
2023/08/03 11:29:40;;;;;;;;;0.00;0.00;;;;;;;;5050075;28;8855;-77
2023/08/03 11:32:11;;;;;;;;;0.00;0.00;;;;;;;;5048989;28;8796;-79
2023/08/03 11:34:39;;;;;;;;;0.00;0.00;;;;;;;;5049710;28;9656;-79
2023/08/03 11:37:06;;;;;;;;;0.00;0.00;;;;;;;;5049361;28;9618;-77
2023/08/03 11:39:37;;;;;;;;;0.00;0.00;;;;;;;;5049648;28;8886;-83
2023/08/03 11:42:05;;;;;;;;;0.00;0.00;;;;;;;;5048764;28;8855;-81
2023/08/03 11:44:32;;;;;;;;;0.80;0.00;;;;;;;;5039005;28;8851;-77
2023/08/03 11:47:05;;;;;;;;;0.00;0.00;;;;;;;;5049081;28;8862;-79
2023/08/03 11:49:33;;;;;;;;;0.00;0.00;;;;;;;;5049747;28;8869;-82
2023/08/03 11:52:00;;;;;;;;;0.00;0.00;;;;;;;;5048003;28;8853;-79
2023/08/03 11:54:30;;;;;;;;;0.00;0.00;;;;;;;;5049949;28;8863;-82
2023/08/03 11:58:07;;;;;;;;;0.00;0.00;;;;;;;;5049715;28;8855;-82
2023/08/03 11:59:49;;;;;;;;;0.00;0.00;;;;;;;;5048912;28;9061;-74
2023/08/03 12:02:18;;;;;;;;;0.00;0.00;;;;;;;;5048840;28;8890;-83
2023/08/03 12:04:54;;;;;;;;;0.00;0.00;;;;;;;;5049064;28;8862;-81
2023/08/03 12:07:21;;;;;;;;;0.00;0.00;;;;;;;;5049049;28;8978;-78
2023/08/03 12:09:52;;;;;;;;;0.00;0.00;;;;;;;;5048848;28;8851;-76
2023/08/03 12:12:19;;;;;;;;;1.00;1.00;;;;;;;;5049041;28;8866;-75
2023/08/03 12:14:46;;;;;;;;;0.00;0.00;;;;;;;;5046670;28;8855;-78
2023/08/03 12:17:14;;;;;;;;;0.00;0.00;;;;;;;;5048642;28;8823;-82
2023/08/03 12:19:44;;;;;;;;;0.80;0.80;;;;;;;;5046547;28;8969;-81
2023/08/03 12:22:12;;;;;;;;;0.00;0.00;;;;;;;;5049180;28;8858;-80
2023/08/03 12:24:39;;;;;;;;;1.00;1.00;;;;;;;;5048534;28;8863;-78
2023/08/03 12:27:07;;;;;;;;;1.00;1.00;;;;;;;;5048760;28;8877;-82
2023/08/03 12:29:36;;;;;;;;;0.00;0.00;;;;;;;;5048591;28;8866;-80
2023/08/03 12:32:03;;;;;;;;;1.40;1.40;;;;;;;;5048155;28;8804;-81
2023/08/03 12:34:30;;;;;;;;;0.80;0.80;;;;;;;;5048368;28;8871;-81
2023/08/03 12:36:59;;;;;;;;;0.00;0.00;;;;;;;;5048740;28;8840;-80
2023/08/03 12:39:26;;;;;;;;;0.00;0.00;;;;;;;;5048620;28;8866;-80
2023/08/03 12:41:53;;;;;;;;;0.20;0.20;;;;;;;;5048633;28;8876;-81
2023/08/03 12:44:21;;;;;;;;;0.80;0.40;;;;;;;;5048586;28;8870;-81
2023/08/03 12:46:48;;;;;;;;;0.00;0.00;;;;;;;;5049972;28;9241;-79
2023/08/03 12:49:18;;;;;;;;;0.60;0.60;;;;;;;;5050382;28;8871;-79
2023/08/03 12:51:45;;;;;;;;;0.00;0.00;;;;;;;;5049594;28;8886;-79
2023/08/03 12:54:13;;;;;;;;;0.40;0.40;;;;;;;;5048520;28;8875;-79
2023/08/03 12:56:40;;;;;;;;;0.00;0.00;;;;;;;;5048213;28;8993;-78
2023/08/03 12:59:08;;;;;;;;;1.60;0.00;;;;;;;;5047816;28;8862;-77
2023/08/03 13:01:35;;;;;;;;;0.00;0.00;;;;;;;;5047409;28;8828;-77
2023/08/03 13:04:02;;;;;;;;;0.00;0.00;;;;;;;;5047620;28;9660;-79
2023/08/03 13:06:31;;;;;;;;;0.40;0.40;;;;;;;;5039272;28;8869;-78
2023/08/03 13:08:58;;;;;;;;;0.00;0.00;;;;;;;;5047797;28;8855;-72
2023/08/03 13:11:27;;;;;;;;;0.00;0.00;;;;;;;;5043911;28;8879;-76
2023/08/03 13:13:54;;;;;;;;;0.00;0.00;;;;;;;;5047194;28;8863;-82
2023/08/03 13:16:22;;;;;;;;;1.60;0.00;;;;;;;;5051915;28;8875;-80
2023/08/03 13:18:50;;;;;;;;;0.00;0.00;;;;;;;;5046552;28;8855;-80
2023/08/03 13:21:17;;;;;;;;;0.00;0.00;;;;;;;;5035687;28;8866;-81
2023/08/03 13:23:46;;;;;;;;;0.80;0.00;;;;;;;;5047780;28;8866;-80
2023/08/03 13:26:13;;;;;;;;;1.00;1.00;;;;;;;;5047618;28;9642;-80
2023/08/03 13:28:44;;;;;;;;;0.00;0.00;;;;;;;;5033795;28;8858;-81
2023/08/03 13:31:14;;;;;;;;;0.00;0.00;;;;;;;;5046942;28;8818;-81
2023/08/03 13:33:41;;;;;;;;;1.00;1.00;;;;;;;;5042752;28;8835;-82
2023/08/03 13:36:11;;;;;;;;;0.80;0.80;;;;;;;;5047342;28;9653;-78
2023/08/03 13:38:38;;;;;;;;;1.40;1.00;;;;;;;;5047233;28;8873;-75
2023/08/03 13:41:06;;;;;;;;;0.20;0.20;;;;;;;;5047188;28;8843;-78
2023/08/03 13:43:34;;;;;;;;;1.00;1.00;;;;;;;;5033651;28;8846;-75
2023/08/03 13:46:02;;;;;;;;;0.00;0.00;;;;;;;;5047315;28;8863;-78
2023/08/03 13:48:29;;;;;;;;;0.20;0.20;;;;;;;;5046623;28;8863;-76
2023/08/03 13:50:58;;;;;;;;;0.00;0.00;;;;;;;;5036466;28;8858;-77
2023/08/03 13:53:25;;;;;;;;;0.00;0.00;;;;;;;;5047413;28;8847;-73
2023/08/03 13:55:52;;;;;;;;;0.80;0.80;;;;;;;;5047416;28;8851;-73
2023/08/03 13:58:19;;;;;;;;;0.00;0.00;;;;;;;;5046749;28;8851;-72
2023/08/03 14:00:46;;;;;;;;;0.80;0.80;;;;;;;;5047230;28;9577;-82
2023/08/03 14:03:15;;;;;;;;;0.00;0.00;;;;;;;;5046360;28;8861;-82
2023/08/03 14:05:45;;;;;;;;;1.60;0.80;;;;;;;;5047529;28;8873;-83
2023/08/03 14:08:12;;;;;;;;;0.80;0.80;;;;;;;;5047902;28;8935;-83
2023/08/03 14:10:40;;;;;;;;;0.00;0.00;;;;;;;;5055591;28;9005;-82
2023/08/03 14:13:07;;;;;;;;;0.20;0.20;;;;;;;;5057679;28;8839;-81
2023/08/03 14:15:34;;;;;;;;;0.00;0.00;;;;;;;;5047264;28;8851;-83
2023/08/03 14:18:01;;;;;;;;;2.60;2.60;;;;;;;;5046955;28;8859;-82
2023/08/03 14:20:30;;;;;;;;;1.80;1.80;;;;;;;;5047812;28;8875;-74
2023/08/03 14:22:57;;;;;;;;;1.80;1.80;;;;;;;;5047424;28;8998;-82
2023/08/03 14:25:25;;;;;;;;;2.00;2.00;;;;;;;;5048839;28;8879;-80
2023/08/03 14:27:52;;;;;;;;;2.00;2.00;;;;;;;;5048531;28;8867;-81
2023/08/03 14:30:19;;;;;;;;;1.80;1.80;;;;;;;;5047379;28;8858;-80
2023/08/03 14:32:46;;;;;;;;;1.00;1.00;;;;;;;;5042799;28;9598;-79
2023/08/03 14:35:14;;;;;;;;;0.80;0.80;;;;;;;;5041355;28;8851;-82
2023/08/03 14:37:43;;;;;;;;;1.00;1.00;;;;;;;;5047243;28;8954;-81
2023/08/03 14:40:11;;;;;;;;;1.00;1.00;;;;;;;;5046391;28;8871;-78
2023/08/03 14:42:38;;;;;;;;;0.40;0.40;;;;;;;;5042602;28;8949;-75
2023/08/03 14:45:06;;;;;;;;;0.00;0.00;;;;;;;;5043905;28;8839;-79
2023/08/03 14:47:34;;;;;;;;;0.00;0.00;;;;;;;;5050090;28;8859;-76
2023/08/03 14:50:03;;;;;;;;;0.00;0.00;;;;;;;;5036698;28;8895;-78
2023/08/03 14:52:30;;;;;;;;;0.00;0.00;;;;;;;;5050734;28;8863;-74
2023/08/03 14:54:58;;;;;;;;;1.00;0.00;;;;;;;;5050403;28;8885;-73
2023/08/03 14:57:26;;;;;;;;;0.00;0.00;;;;;;;;5050585;28;8861;-76
2023/08/03 14:59:53;;;;;;;;;0.00;0.00;;;;;;;;5050655;28;8847;-82
2023/08/03 15:02:20;;;;;;;;;0.00;0.00;;;;;;;;5049307;28;8897;-78
2023/08/03 15:04:47;;;;;;;;;0.20;0.00;;;;;;;;5050490;28;8874;-83